Time;durP1;ratioP1;P1;durP2;ratioP2;P2;SDS_P1;SDS_P2;PMS_P1;PMS_P2;Temp;Humidity;BMP_temperature;BMP_pressure;BME280_temperature;BME280_humidity;BME280_pressure;Samples;Min_cycle;Max_cycle;Signal;HPM_P1;HPM_P2
2023/07/02 00:00:06;;;;;;;18.90;6.40;;;14.40;99.90;;;;;;5136383;27;20055;-24
2023/07/02 00:02:32;;;;;;;14.75;5.75;;;14.40;99.90;;;;;;5141120;27;20164;-24
2023/07/02 00:04:58;;;;;;;20.63;8.55;;;14.30;99.90;;;;;;5123986;27;20078;-24
2023/07/02 00:07:25;;;;;;;15.85;5.93;;;14.30;99.90;;;;;;5141391;27;20498;-24
2023/07/02 00:09:51;;;;;;;22.10;6.43;;;14.30;99.90;;;;;;5141461;27;20597;-24
2023/07/02 00:12:17;;;;;;;26.85;7.35;;;14.40;99.90;;;;;;5123244;27;20035;-24
2023/07/02 00:14:43;;;;;;;21.45;6.68;;;14.40;99.90;;;;;;5142134;27;20042;-25
2023/07/02 00:17:12;;;;;;;23.40;7.03;;;14.40;99.90;;;;;;5141890;27;20376;-25
2023/07/02 00:19:41;;;;;;;23.13;7.80;;;14.40;99.90;;;;;;5122884;27;20054;-24
2023/07/02 00:22:08;;;;;;;23.65;8.52;;;14.40;99.90;;;;;;5105810;27;20068;-24
2023/07/02 00:24:34;;;;;;;20.98;7.25;;;14.40;99.90;;;;;;5141482;27;20473;-24
2023/07/02 00:27:00;;;;;;;23.48;7.72;;;14.40;99.90;;;;;;5123043;27;20053;-24
2023/07/02 00:29:26;;;;;;;26.02;8.02;;;14.50;99.90;;;;;;5122986;27;20043;-25
2023/07/02 00:31:51;;;;;;;23.90;7.47;;;14.40;99.90;;;;;;5141096;27;20051;-25
2023/07/02 00:34:18;;;;;;;26.45;7.35;;;14.40;99.90;;;;;;5122743;27;20070;-24
2023/07/02 00:36:44;;;;;;;21.13;7.32;;;14.40;99.90;;;;;;5141207;27;20046;-24
2023/07/02 00:39:11;;;;;;;20.50;7.80;;;14.40;99.90;;;;;;5122788;27;20043;-24
2023/07/02 00:41:37;;;;;;;20.50;7.88;;;14.40;99.90;;;;;;5123153;27;20496;-24
2023/07/02 00:44:03;;;;;;;29.58;8.52;;;14.40;99.90;;;;;;5122930;27;20090;-24
2023/07/02 00:46:31;;;;;;;16.60;6.60;;;14.30;99.90;;;;;;5141090;27;20050;-25
2023/07/02 00:48:58;;;;;;;22.75;7.80;;;14.20;99.90;;;;;;5141098;27;20062;-24
2023/07/02 00:51:26;;;;;;;23.83;8.57;;;14.20;99.90;;;;;;5141036;27;20491;-24
2023/07/02 00:53:54;;;;;;;26.65;7.60;;;14.20;99.90;;;;;;5140988;27;20039;-24
2023/07/02 00:56:20;;;;;;;26.30;8.13;;;14.10;99.90;;;;;;5140950;27;20055;-25
2023/07/02 00:58:50;;;;;;;23.30;9.13;;;14.20;99.90;;;;;;5140970;27;20399;-24
2023/07/02 01:01:22;;;;;;;30.05;9.60;;;14.20;99.90;;;;;;5141352;27;20047;-25
2023/07/02 01:03:59;;;;;;;23.40;7.90;;;14.20;99.90;;;;;;5140970;27;20043;-24
2023/07/02 01:06:26;;;;;;;22.50;8.25;;;14.20;99.90;;;;;;5141729;27;20358;-24
2023/07/02 01:09:04;;;;;;;29.55;8.38;;;14.30;99.90;;;;;;5140845;27;20039;-25
2023/07/02 01:11:36;;;;;;;26.90;8.38;;;14.40;99.90;;;;;;5138810;27;20054;-25
2023/07/02 01:14:13;;;;;;;27.17;8.77;;;14.40;99.90;;;;;;5137572;27;20043;-25
2023/07/02 01:16:43;;;;;;;25.20;8.52;;;14.50;99.90;;;;;;5137676;27;20044;-25
2023/07/02 01:19:18;;;;;;;24.85;8.82;;;14.40;99.90;;;;;;5119431;27;20072;-25
2023/07/02 01:21:45;;;;;;;26.92;7.90;;;14.30;99.90;;;;;;5119699;27;20050;-25
2023/07/02 01:24:12;;;;;;;29.63;9.20;;;14.20;99.90;;;;;;5137383;27;20096;-25
2023/07/02 01:26:38;;;;;;;25.27;7.82;;;14.10;99.90;;;;;;5137398;27;20043;-24
2023/07/02 01:29:14;;;;;;;23.83;8.13;;;14.00;99.90;;;;;;5137274;27;20541;-25
2023/07/02 01:31:39;;;;;;;28.20;9.15;;;13.70;1.00;;;;;;5137161;27;20096;-25
2023/07/02 01:34:07;;;;;;;25.00;8.10;;;13.60;1.00;;;;;;5137163;27;20126;-24
2023/07/02 01:36:33;;;;;;;31.73;9.30;;;13.60;1.00;;;;;;5137748;27;20115;-24
2023/07/02 01:38:59;;;;;;;24.88;8.60;;;13.60;1.00;;;;;;5101863;27;20089;-24
2023/07/02 01:41:25;;;;;;;33.40;8.80;;;13.80;1.00;;;;;;5137050;27;20043;-24
2023/07/02 01:43:50;;;;;;;24.75;8.88;;;13.80;1.00;;;;;;5119702;27;20063;-24
2023/07/02 01:46:16;;;;;;;29.98;8.55;;;13.90;1.00;;;;;;5136997;27;20039;-24
2023/07/02 01:48:42;;;;;;;29.60;9.55;;;14.00;1.00;;;;;;5136922;27;20468;-24
2023/07/02 01:51:07;;;;;;;31.92;9.20;;;14.00;1.00;;;;;;5137721;27;20082;-24
2023/07/02 01:53:33;;;;;;;24.33;8.02;;;13.90;1.00;;;;;;5118969;27;20384;-24
2023/07/02 01:55:59;;;;;;;27.15;9.00;;;13.90;1.00;;;;;;5084694;27;20560;-24
2023/07/02 01:58:25;;;;;;;27.50;8.98;;;13.90;1.00;;;;;;5118389;27;20126;-25
2023/07/02 02:00:51;;;;;;;26.73;8.90;;;13.90;1.00;;;;;;5118859;27;20051;-24
2023/07/02 02:03:17;;;;;;;21.15;7.45;;;13.80;1.00;;;;;;5101699;27;20077;-25
2023/07/02 02:05:42;;;;;;;24.70;8.52;;;13.80;1.00;;;;;;5119275;27;20043;-25
2023/07/02 02:08:08;;;;;;;27.10;8.65;;;13.80;1.00;;;;;;5137146;27;20046;-25
2023/07/02 02:10:34;;;;;;;27.75;9.20;;;13.80;1.00;;;;;;5136462;27;20047;-25
2023/07/02 02:12:59;;;;;;;23.65;8.20;;;13.60;1.00;;;;;;5136429;27;20047;-24
2023/07/02 02:15:25;;;;;;;30.60;8.45;;;13.60;1.00;;;;;;5136326;27;20525;-24
2023/07/02 02:17:51;;;;;;;25.40;9.07;;;13.60;1.00;;;;;;5136340;27;20051;-24
2023/07/02 02:20:17;;;;;;;30.05;9.63;;;13.50;1.00;;;;;;5136280;27;20050;-24
2023/07/02 02:22:42;;;;;;;27.55;9.30;;;13.50;1.00;;;;;;5135869;27;20497;-24
2023/07/02 02:25:09;;;;;;;33.42;9.43;;;13.50;1.00;;;;;;5118165;27;20073;-24
2023/07/02 02:27:35;;;;;;;19.17;7.70;;;13.50;1.00;;;;;;5136175;27;20046;-24
2023/07/02 02:30:00;;;;;;;28.98;9.75;;;13.50;1.00;;;;;;5083830;27;20055;-24
2023/07/02 02:32:26;;;;;;;36.88;9.93;;;13.50;1.00;;;;;;5100651;27;20126;-24
2023/07/02 02:34:52;;;;;;;33.05;9.50;;;13.60;1.00;;;;;;5135949;27;20043;-24
2023/07/02 02:37:18;;;;;;;26.10;9.00;;;13.50;1.00;;;;;;5117845;27;20480;-24
2023/07/02 02:39:44;;;;;;;24.55;9.05;;;13.50;1.00;;;;;;5135940;27;20377;-24
2023/07/02 02:42:10;;;;;;;24.10;8.05;;;13.50;5.10;;;;;;5135904;27;20116;-24
2023/07/02 02:44:36;;;;;;;26.73;9.00;;;13.50;15.70;;;;;;5135791;27;20052;-24
2023/07/02 02:47:02;;;;;;;26.75;8.85;;;13.40;14.00;;;;;;5100617;27;20039;-25
2023/07/02 02:49:28;;;;;;;25.48;8.82;;;13.40;20.80;;;;;;5100684;27;20134;-24
2023/07/02 02:51:53;;;;;;;26.35;9.48;;;13.30;61.40;;;;;;5135293;27;20134;-25
2023/07/02 02:54:19;;;;;;;25.20;8.68;;;13.30;89.40;;;;;;5135295;27;20050;-24
2023/07/02 02:56:45;;;;;;;27.35;9.18;;;13.30;94.40;;;;;;5135610;27;20043;-24
2023/07/02 02:59:10;;;;;;;29.30;8.88;;;13.20;98.00;;;;;;5135532;27;20070;-24
2023/07/02 03:01:36;;;;;;;28.92;10.00;;;13.20;99.90;;;;;;5135383;27;20099;-24
2023/07/02 03:04:02;;;;;;;31.90;9.18;;;13.30;99.90;;;;;;5136066;27;20039;-24
2023/07/02 03:06:28;;;;;;;31.25;9.30;;;13.30;99.90;;;;;;5136006;27;20042;-25
2023/07/02 03:08:53;;;;;;;29.13;9.55;;;13.30;99.90;;;;;;5135355;27;20047;-24
2023/07/02 03:11:19;;;;;;;28.60;9.65;;;13.30;99.90;;;;;;5117163;27;20047;-24
2023/07/02 03:13:45;;;;;;;27.42;8.90;;;13.30;99.90;;;;;;5135211;27;20047;-24
2023/07/02 03:16:10;;;;;;;31.63;10.07;;;13.20;99.90;;;;;;5116967;27;20051;-24
2023/07/02 03:18:36;;;;;;;25.88;8.05;;;13.20;99.90;;;;;;5135214;27;20559;-24
2023/07/02 03:21:02;;;;;;;27.95;10.95;;;13.20;99.90;;;;;;5116924;27;20054;-24
2023/07/02 03:23:28;;;;;;;28.65;8.55;;;13.30;99.90;;;;;;5135380;27;20082;-24
2023/07/02 03:25:53;;;;;;;21.90;8.25;;;13.40;99.90;;;;;;5135091;27;20046;-24
2023/07/02 03:28:19;;;;;;;25.38;8.57;;;13.40;99.90;;;;;;5135340;27;20426;-24
2023/07/02 03:30:44;;;;;;;24.02;7.40;;;13.50;99.90;;;;;;5135484;27;20051;-24
2023/07/02 03:33:10;;;;;;;28.67;8.68;;;13.50;99.90;;;;;;5135022;27;20054;-24
2023/07/02 03:35:36;;;;;;;28.70;10.15;;;13.50;99.90;;;;;;5133856;27;20176;-25
2023/07/02 03:38:03;;;;;;;24.60;8.40;;;13.60;99.90;;;;;;5135431;27;20047;-25
2023/07/02 03:40:29;;;;;;;23.63;8.02;;;13.70;80.60;;;;;;5116846;27;20050;-25
2023/07/02 03:42:54;;;;;;;21.73;7.88;;;13.70;53.30;;;;;;5134837;27;20043;-24
2023/07/02 03:45:20;;;;;;;32.45;8.38;;;13.70;29.50;;;;;;5135114;27;20468;-24
2023/07/02 03:47:46;;;;;;;20.58;7.80;;;13.70;38.30;;;;;;5134712;27;20118;-24
2023/07/02 03:50:12;;;;;;;24.60;7.72;;;13.70;26.70;;;;;;5134743;27;20047;-24
2023/07/02 03:52:38;;;;;;;27.65;7.85;;;13.80;1.00;;;;;;5134725;27;20051;-24
2023/07/02 03:55:04;;;;;;;29.13;8.13;;;13.80;1.00;;;;;;5134613;27;20083;-24
2023/07/02 03:57:30;;;;;;;22.25;8.02;;;13.80;1.00;;;;;;5134663;27;20051;-24
2023/07/02 03:59:56;;;;;;;25.92;8.00;;;13.80;1.00;;;;;;5135182;28;20043;-24
2023/07/02 04:02:21;;;;;;;24.55;7.40;;;13.80;1.00;;;;;;5134233;28;20047;-24
2023/07/02 04:04:47;;;;;;;19.65;7.07;;;13.80;1.00;;;;;;5135149;28;20426;-24
2023/07/02 04:07:13;;;;;;;20.38;6.97;;;13.80;1.00;;;;;;5116340;28;20071;-24
2023/07/02 04:09:39;;;;;;;23.98;7.68;;;13.80;1.00;;;;;;5100241;28;20425;-25
2023/07/02 04:12:05;;;;;;;24.75;8.15;;;13.90;3.90;;;;;;5134502;28;20385;-26
2023/07/02 04:14:30;;;;;;;21.67;7.68;;;13.90;1.00;;;;;;5116263;28;20051;-25
2023/07/02 04:16:56;;;;;;;20.48;7.63;;;14.00;1.00;;;;;;5116314;28;20054;-25
2023/07/02 04:19:22;;;;;;;21.33;7.03;;;14.10;1.00;;;;;;5134233;28;20050;-25
2023/07/02 04:21:47;;;;;;;23.25;7.30;;;14.10;1.00;;;;;;5135226;28;20118;-24
2023/07/02 04:24:14;;;;;;;25.75;7.85;;;14.20;1.00;;;;;;5134373;28;20357;-24
2023/07/02 04:26:42;;;;;;;24.27;7.75;;;14.20;1.00;;;;;;5134372;28;20046;-24
2023/07/02 04:29:09;;;;;;;21.10;7.53;;;14.30;99.90;;;;;;5099500;28;20058;-24
2023/07/02 04:31:35;;;;;;;25.33;6.72;;;14.30;99.90;;;;;;5134289;28;20040;-24
2023/07/02 04:34:00;;;;;;;19.92;6.47;;;14.20;99.90;;;;;;5134270;28;20047;-24
2023/07/02 04:36:28;;;;;;;21.85;7.30;;;14.20;99.90;;;;;;5135167;28;20082;-24
2023/07/02 04:38:54;;;;;;;18.20;6.13;;;14.20;99.90;;;;;;5135112;28;20102;-24
2023/07/02 04:41:20;;;;;;;24.52;7.07;;;14.30;1.00;;;;;;5116096;28;20496;-24
2023/07/02 04:43:45;;;;;;;23.63;7.00;;;14.40;1.00;;;;;;5134223;28;20035;-24
2023/07/02 04:46:12;;;;;;;20.52;5.70;;;14.40;99.90;;;;;;5135427;27;20096;-24
2023/07/02 04:48:38;;;;;;;14.57;5.53;;;14.40;1.00;;;;;;5138103;27;20498;-24
2023/07/02 04:51:04;;;;;;;21.52;6.63;;;14.50;1.00;;;;;;5138905;27;20100;-24
2023/07/02 04:53:30;;;;;;;17.92;6.35;;;14.50;99.90;;;;;;5119847;27;20414;-24
2023/07/02 04:55:57;;;;;;;20.90;6.15;;;14.60;99.90;;;;;;5137954;27;20046;-24
2023/07/02 04:58:23;;;;;;;14.80;4.88;;;14.60;99.90;;;;;;5138237;27;20370;-24
2023/07/02 05:00:48;;;;;;;19.17;5.90;;;14.60;99.90;;;;;;5119585;27;20039;-24
2023/07/02 05:03:14;;;;;;;17.83;5.95;;;14.80;99.90;;;;;;5137767;27;20051;-24
2023/07/02 05:05:40;;;;;;;22.67;5.55;;;15.10;99.90;;;;;;5120212;27;20200;-24
2023/07/02 05:08:06;;;;;;;15.40;5.00;;;15.30;90.30;;;;;;5103454;27;20072;-24
2023/07/02 05:10:32;;;;;;;18.45;5.65;;;15.50;99.90;;;;;;5119437;27;20050;-24
2023/07/02 05:12:57;;;;;;;14.57;4.60;;;15.40;99.90;;;;;;5137956;27;20125;-24
2023/07/02 05:15:24;;;;;;;19.35;6.00;;;15.30;51.50;;;;;;5119290;27;20118;-24
2023/07/02 05:17:50;;;;;;;14.90;5.07;;;15.20;99.90;;;;;;5137553;27;20096;-24
2023/07/02 05:20:15;;;;;;;12.82;5.47;;;15.10;99.90;;;;;;5119282;27;20047;-24
2023/07/02 05:22:41;;;;;;;21.35;5.78;;;15.10;99.90;;;;;;5137439;27;20480;-24
2023/07/02 05:25:07;;;;;;;11.80;4.82;;;15.10;99.90;;;;;;5137482;27;20079;-24
2023/07/02 05:27:33;;;;;;;16.60;6.10;;;15.00;99.90;;;;;;5137356;27;20085;-24
2023/07/02 05:29:58;;;;;;;13.48;5.55;;;15.10;99.90;;;;;;5119187;27;20082;-24
2023/07/02 05:32:24;;;;;;;22.48;6.25;;;15.30;99.90;;;;;;5137508;27;20064;-24
2023/07/02 05:34:50;;;;;;;15.30;5.18;;;15.30;99.90;;;;;;5137163;27;20047;-24
2023/07/02 05:37:16;;;;;;;17.42;5.75;;;15.20;99.90;;;;;;5137188;27;20039;-24
2023/07/02 05:39:42;;;;;;;12.13;4.78;;;15.60;1.00;;;;;;5118905;27;20085;-24
2023/07/02 05:42:07;;;;;;;22.45;5.53;;;15.80;99.90;;;;;;5118739;27;20099;-24
2023/07/02 05:44:33;;;;;;;20.70;4.90;;;15.70;99.90;;;;;;5137696;27;20035;-24
2023/07/02 05:46:59;;;;;;;18.17;5.40;;;15.80;99.90;;;;;;5118942;27;20055;-24
2023/07/02 05:49:26;;;;;;;17.27;5.78;;;15.70;99.90;;;;;;5136982;27;20066;-24
2023/07/02 05:51:52;;;;;;;16.63;5.30;;;15.60;99.90;;;;;;5137195;27;20084;-24
2023/07/02 05:54:18;;;;;;;16.73;5.45;;;15.90;1.00;;;;;;5118881;27;20544;-24
2023/07/02 05:56:43;;;;;;;16.80;5.65;;;16.30;99.90;;;;;;5136843;27;20119;-24
2023/07/02 05:59:09;;;;;;;12.50;4.45;;;16.50;99.90;;;;;;5136097;27;20477;-24
2023/07/02 06:01:36;;;;;;;12.95;4.80;;;16.70;1.00;;;;;;5136204;27;20039;-24
2023/07/02 06:04:02;;;;;;;16.75;5.10;;;16.70;1.00;;;;;;5137702;27;20438;-24
2023/07/02 06:06:27;;;;;;;15.02;4.85;;;16.30;89.00;;;;;;5118514;27;20100;-24
2023/07/02 06:08:53;;;;;;;15.10;5.13;;;16.60;99.90;;;;;;5137107;27;20457;-24
2023/07/02 06:11:19;;;;;;;11.57;5.00;;;16.90;22.00;;;;;;5136532;27;20131;-24
2023/07/02 06:13:44;;;;;;;13.85;4.25;;;17.10;1.00;;;;;;5118383;27;20043;-24
2023/07/02 06:16:10;;;;;;;15.48;4.45;;;17.30;50.70;;;;;;5136418;27;20070;-24
2023/07/02 06:18:36;;;;;;;15.20;4.82;;;17.40;99.90;;;;;;5102090;27;20140;-24
2023/07/02 06:21:01;;;;;;;16.67;4.45;;;17.20;1.00;;;;;;5118229;27;20043;-24
2023/07/02 06:23:28;;;;;;;9.68;3.15;;;17.20;99.90;;;;;;5118183;27;20067;-24
2023/07/02 06:25:58;;;;;;;10.63;3.50;;;17.30;1.00;;;;;;5136513;27;20047;-24
2023/07/02 06:28:28;;;;;;;11.80;3.30;;;17.30;99.90;;;;;;5136594;27;20086;-24
2023/07/02 06:30:53;;;;;;;15.27;3.45;;;16.60;99.90;;;;;;5136700;27;20047;-24
2023/07/02 06:33:19;;;;;;;15.05;3.13;;;16.40;1.00;;;;;;5136667;27;20457;-23
2023/07/02 06:35:45;;;;;;;14.80;3.95;;;16.90;99.90;;;;;;5135980;27;20043;-24
2023/07/02 06:38:10;;;;;;;13.50;3.20;;;17.10;1.00;;;;;;5117889;27;20047;-24
2023/07/02 06:40:36;;;;;;;12.48;3.83;;;16.80;1.00;;;;;;5117689;27;20046;-24
2023/07/02 06:43:02;;;;;;;10.57;3.28;;;17.00;87.00;;;;;;5118474;27;20086;-24
2023/07/02 06:45:27;;;;;;;8.80;3.20;;;17.00;99.90;;;;;;5118427;27;20445;-24
2023/07/02 06:47:53;;;;;;;7.47;3.03;;;16.90;99.90;;;;;;5136323;27;20452;-24
2023/07/02 06:50:19;;;;;;;10.57;2.88;;;16.60;99.90;;;;;;5135863;27;20051;-24
2023/07/02 06:52:44;;;;;;;12.52;2.78;;;16.60;38.20;;;;;;5135359;27;20039;-24
2023/07/02 06:55:10;;;;;;;8.00;2.97;;;17.20;99.90;;;;;;5117273;27;20055;-24
2023/07/02 06:57:43;;;;;;;8.00;3.13;;;17.00;1.00;;;;;;5136419;27;20083;-24
2023/07/02 07:00:09;;;;;;;7.72;2.63;;;17.20;1.00;;;;;;5135962;27;20043;-24
2023/07/02 07:02:34;;;;;;;12.48;2.63;;;17.50;99.90;;;;;;5117086;27;20412;-24
2023/07/02 07:05:00;;;;;;;9.43;2.92;;;17.80;99.90;;;;;;5117247;27;20057;-24
2023/07/02 07:07:26;;;;;;;9.55;3.33;;;17.40;99.90;;;;;;5136000;27;20388;-24
2023/07/02 07:09:51;;;;;;;11.07;2.70;;;17.40;99.90;;;;;;5134422;27;20047;-24
2023/07/02 07:12:17;;;;;;;10.18;3.10;;;17.10;99.90;;;;;;5117220;27;20047;-24
2023/07/02 07:14:43;;;;;;;13.50;2.67;;;17.10;1.00;;;;;;5135219;27;20049;-24
2023/07/02 07:17:09;;;;;;;8.43;2.78;;;17.40;99.90;;;;;;5083216;27;20135;-24
2023/07/02 07:19:34;;;;;;;7.55;2.88;;;17.90;1.00;;;;;;5135234;27;20047;-24
2023/07/02 07:22:00;;;;;;;5.82;2.40;;;18.00;1.00;;;;;;5135475;27;20114;-24
2023/07/02 07:24:26;;;;;;;7.68;2.85;;;18.00;1.00;;;;;;5135707;27;20043;-24
2023/07/02 07:26:52;;;;;;;11.80;3.50;;;17.70;1.00;;;;;;5135123;27;20075;-24
2023/07/02 07:29:17;;;;;;;13.13;3.10;;;18.00;1.00;;;;;;5135110;27;20043;-24
2023/07/02 07:31:43;;;;;;;13.27;3.00;;;18.10;99.90;;;;;;5116650;27;20047;-24
2023/07/02 07:34:09;;;;;;;6.50;1.50;;;18.30;99.90;;;;;;5116492;27;20226;-24
2023/07/02 07:36:36;;;;;;;11.57;2.75;;;18.40;43.00;;;;;;5117131;27;20127;-24
2023/07/02 07:39:02;;;;;;;7.28;2.20;;;18.10;1.00;;;;;;5116785;27;20058;-24
2023/07/02 07:41:28;;;;;;;8.73;2.58;;;18.30;1.00;;;;;;5134874;27;20047;-24
2023/07/02 07:43:54;;;;;;;9.02;3.13;;;18.40;1.00;;;;;;5135440;27;20153;-24
2023/07/02 07:46:19;;;;;;;9.10;2.97;;;18.50;10.50;;;;;;5134797;27;20130;-24
2023/07/02 07:48:45;;;;;;;7.60;2.63;;;17.40;44.60;;;;;;5099733;27;20065;-24
2023/07/02 07:51:11;;;;;;;9.60;2.80;;;17.70;99.90;;;;;;5116546;28;20483;-24
2023/07/02 07:53:39;;;;;;;14.52;3.90;;;18.20;99.90;;;;;;5134647;27;20457;-24
2023/07/02 07:56:05;;;;;;;7.35;2.42;;;18.60;1.00;;;;;;5134687;27;20473;-24
2023/07/02 07:58:34;;;;;;;12.20;3.30;;;19.00;1.00;;;;;;5134716;27;20092;-24
2023/07/02 08:01:00;;;;;;;11.10;3.28;;;18.30;99.90;;;;;;5134717;28;20385;-24
2023/07/02 08:03:25;;;;;;;6.53;2.22;;;17.70;42.30;;;;;;5134417;27;20055;-25
2023/07/02 08:05:51;;;;;;;8.73;2.45;;;17.40;48.50;;;;;;5116338;28;20039;-24
2023/07/02 08:08:17;;;;;;;13.27;2.60;;;17.00;1.00;;;;;;5134612;28;20125;-24
2023/07/02 08:10:43;;;;;;;11.25;2.53;;;16.50;99.90;;;;;;5134621;28;20058;-24
2023/07/02 08:13:09;;;;;;;7.97;3.08;;;16.20;51.60;;;;;;5134850;28;20091;-24
2023/07/02 08:15:34;;;;;;;5.90;1.95;;;15.90;1.00;;;;;;5099618;28;20388;-24
2023/07/02 08:18:00;;;;;;;7.95;2.30;;;15.40;99.90;;;;;;5116706;28;20047;-23
2023/07/02 08:20:26;;;;;;;12.73;3.58;;;14.80;1.00;;;;;;5099736;27;20047;-24
2023/07/02 08:22:52;;;;;;;8.82;2.72;;;14.70;1.00;;;;;;5138431;27;20122;-24
2023/07/02 08:25:19;;;;;;;12.85;3.17;;;14.90;1.00;;;;;;5139229;27;20046;-24
2023/07/02 08:27:45;;;;;;;12.07;3.45;;;15.30;4.50;;;;;;5121329;27;20062;-24
2023/07/02 08:30:11;;;;;;;8.30;3.38;;;16.10;99.90;;;;;;5103208;27;20073;-24
2023/07/02 08:32:37;;;;;;;8.95;3.00;;;17.10;1.00;;;;;;5138472;27;20404;-24
2023/07/02 08:35:03;;;;;;;11.50;3.13;;;17.70;1.00;;;;;;5138344;27;20122;-24
2023/07/02 08:37:29;;;;;;;13.65;3.08;;;18.40;1.00;;;;;;5139383;27;20441;-24
2023/07/02 08:39:54;;;;;;;13.23;3.83;;;18.40;99.90;;;;;;5102732;27;20074;-24
2023/07/02 08:42:20;;;;;;;12.18;3.10;;;17.60;5.00;;;;;;5120575;27;20122;-24
2023/07/02 08:44:47;;;;;;;14.43;3.80;;;16.90;99.90;;;;;;5138202;27;20035;-24
2023/07/02 08:47:13;;;;;;;18.23;3.30;;;16.80;99.90;;;;;;5120056;27;20498;-24
2023/07/02 08:49:39;;;;;;;7.85;2.75;;;16.80;99.90;;;;;;5102961;27;20083;-24
2023/07/02 08:52:05;;;;;;;10.60;2.88;;;17.20;23.30;;;;;;5138103;27;20516;-24
2023/07/02 08:54:31;;;;;;;11.48;4.07;;;16.90;76.40;;;;;;5138004;27;20047;-24
2023/07/02 08:56:57;;;;;;;13.00;2.28;;;16.80;1.00;;;;;;5138003;27;20057;-24
2023/07/02 08:59:23;;;;;;;13.35;3.33;;;16.70;99.90;;;;;;5137984;27;20050;-24
2023/07/02 09:01:51;;;;;;;6.78;2.05;;;17.20;99.90;;;;;;5138264;27;20043;-24
2023/07/02 09:04:18;;;;;;;8.65;2.88;;;17.10;1.00;;;;;;5137611;27;20392;-24
2023/07/02 09:06:45;;;;;;;7.60;2.30;;;17.10;99.90;;;;;;5138398;27;20510;-24
2023/07/02 09:09:10;;;;;;;8.48;2.33;;;18.00;99.90;;;;;;5119660;27;20488;-25
2023/07/02 09:11:49;;;;;;;10.20;2.70;;;18.40;99.90;;;;;;5120453;27;20047;-24
2023/07/02 09:14:26;;;;;;;7.35;2.25;;;19.00;99.90;;;;;;5119429;27;20130;-24
2023/07/02 09:17:06;;;;;;;7.43;2.35;;;18.70;3.30;;;;;;5137625;27;20054;-24
2023/07/02 09:19:33;;;;;;;6.00;1.90;;;18.20;99.90;;;;;;5137568;27;20046;-25
2023/07/02 09:22:03;;;;;;;8.13;1.92;;;18.30;1.00;;;;;;5119408;27;20043;-24
2023/07/02 09:24:30;;;;;;;7.47;1.85;;;18.60;99.90;;;;;;5137431;27;20031;-24
2023/07/02 09:26:59;;;;;;;7.35;2.17;;;19.10;99.90;;;;;;5137501;27;20058;-24
2023/07/02 09:29:34;;;;;;;6.90;2.15;;;19.60;99.90;;;;;;5137378;27;20434;-24
2023/07/02 09:32:07;;;;;;;12.25;2.50;;;19.00;99.90;;;;;;5119496;27;20461;-24
2023/07/02 09:34:35;;;;;;;9.30;2.70;;;19.10;99.90;;;;;;5137130;27;20047;-24
2023/07/02 09:37:03;;;;;;;7.70;2.17;;;18.00;99.90;;;;;;5101910;27;20116;-24
2023/07/02 09:39:34;;;;;;;6.25;1.58;;;17.60;99.90;;;;;;5137736;27;20441;-24
2023/07/02 09:42:02;;;;;;;11.15;1.90;;;18.50;99.90;;;;;;5134604;27;20138;-25
2023/07/02 09:44:32;;;;;;;7.80;1.90;;;19.10;99.90;;;;;;5135878;27;20096;-25
2023/07/02 09:47:06;;;;;;;6.00;1.80;;;18.90;1.00;;;;;;5136266;27;20400;-24
2023/07/02 09:49:41;;;;;;;5.80;1.92;;;18.20;99.90;;;;;;5117019;27;20374;-24
2023/07/02 09:52:11;;;;;;;6.45;1.77;;;18.00;99.90;;;;;;5137581;27;20072;-25
2023/07/02 09:54:37;;;;;;;5.70;2.33;;;17.70;99.90;;;;;;5101474;27;20092;-24
2023/07/02 09:57:04;;;;;;;7.57;2.83;;;17.10;99.90;;;;;;5119147;27;20130;-24
2023/07/02 09:59:30;;;;;;;6.53;1.90;;;17.00;1.00;;;;;;5134780;27;20485;-25
2023/07/02 10:01:56;;;;;;;5.07;1.98;;;17.40;1.00;;;;;;5137035;27;20050;-24
2023/07/02 10:04:25;;;;;;;7.25;2.28;;;17.50;99.90;;;;;;5136960;27;20043;-24
2023/07/02 10:06:52;;;;;;;7.80;2.60;;;17.70;99.90;;;;;;5137538;27;20071;-24
2023/07/02 10:09:19;;;;;;;7.95;2.10;;;18.20;57.60;;;;;;5110848;27;20062;-24
2023/07/02 10:11:47;;;;;;;11.85;2.78;;;18.10;1.00;;;;;;5135030;27;20503;-25
2023/07/02 10:14:13;;;;;;;8.32;2.15;;;17.90;1.00;;;;;;5099372;27;20046;-25
2023/07/02 10:16:49;;;;;;;10.75;3.60;;;18.50;1.00;;;;;;5098538;27;20051;-24
2023/07/02 10:19:15;;;;;;;8.30;2.30;;;19.30;99.90;;;;;;5122696;27;20114;-25
2023/07/02 10:21:41;;;;;;;11.48;1.90;;;19.80;99.90;;;;;;5131985;27;20609;-24
2023/07/02 10:24:11;;;;;;;7.32;2.28;;;19.80;99.90;;;;;;5133773;27;20042;-25
2023/07/02 10:26:37;;;;;;;10.52;2.90;;;19.60;99.90;;;;;;5134295;27;20135;-24
2023/07/02 10:29:03;;;;;;;7.25;2.70;;;19.20;99.90;;;;;;5116966;27;20078;-24
2023/07/02 10:31:29;;;;;;;7.93;2.38;;;18.80;99.90;;;;;;5136577;27;20046;-24
2023/07/02 10:33:55;;;;;;;12.93;2.22;;;18.90;99.90;;;;;;5117803;27;21989;-24
2023/07/02 10:36:23;;;;;;;9.52;2.28;;;18.80;99.90;;;;;;5136633;27;20077;-24
2023/07/02 10:38:50;;;;;;;7.55;2.17;;;18.70;99.90;;;;;;5135909;27;20057;-25
2023/07/02 10:41:27;;;;;;;8.75;2.38;;;18.30;1.00;;;;;;5135903;27;20092;-25
2023/07/02 10:43:52;;;;;;;9.88;2.85;;;19.50;1.00;;;;;;5134977;27;20043;-24
2023/07/02 10:46:20;;;;;;;8.57;2.55;;;20.10;1.00;;;;;;5134794;27;20065;-25
2023/07/02 10:48:54;;;;;;;5.82;2.20;;;19.60;99.90;;;;;;5100294;27;20035;-25
2023/07/02 10:51:21;;;;;;;7.13;2.17;;;19.10;99.90;;;;;;5132897;27;20051;-25
2023/07/02 10:53:56;;;;;;;6.55;2.45;;;18.50;99.90;;;;;;5115047;28;20481;-25
2023/07/02 10:56:21;;;;;;;7.65;2.33;;;18.40;98.40;;;;;;5105294;27;20047;-25
2023/07/02 10:58:51;;;;;;;6.57;2.17;;;18.30;99.90;;;;;;5135611;27;20545;-24
2023/07/02 11:01:25;;;;;;;8.25;2.75;;;18.10;99.90;;;;;;5134547;27;20058;-24
2023/07/02 11:04:02;;;;;;;13.45;2.67;;;18.10;1.00;;;;;;5135165;27;20063;-24
2023/07/02 11:06:33;;;;;;;9.73;2.35;;;19.10;1.00;;;;;;5136358;27;20047;-24
2023/07/02 11:09:00;;;;;;;5.53;1.85;;;19.90;99.90;;;;;;5117807;27;20484;-25
2023/07/02 11:11:26;;;;;;;11.45;2.60;;;20.00;1.00;;;;;;5135919;27;20050;-26
2023/07/02 11:13:52;;;;;;;6.65;2.08;;;20.20;1.00;;;;;;5117148;27;20051;-26
2023/07/02 11:16:26;;;;;;;6.07;1.60;;;20.10;1.00;;;;;;5135217;27;20039;-25
2023/07/02 11:18:54;;;;;;;10.48;2.45;;;20.10;1.00;;;;;;5133714;27;20047;-25
2023/07/02 11:21:19;;;;;;;6.65;1.80;;;20.00;1.00;;;;;;5135243;27;20036;-25
2023/07/02 11:23:45;;;;;;;5.80;1.98;;;19.20;1.00;;;;;;5117557;27;20050;-25
2023/07/02 11:26:11;;;;;;;5.65;1.80;;;18.70;99.90;;;;;;5135044;27;20077;-26
2023/07/02 11:28:49;;;;;;;8.23;2.28;;;18.30;1.00;;;;;;5135049;27;20080;-25
2023/07/02 11:31:24;;;;;;;6.28;2.15;;;17.70;1.00;;;;;;5135594;27;20086;-24
2023/07/02 11:33:50;;;;;;;9.75;2.00;;;17.50;97.70;;;;;;5099803;27;20366;-24
2023/07/02 11:36:25;;;;;;;3.75;1.63;;;17.70;99.90;;;;;;5134945;27;20049;-24
2023/07/02 11:38:51;;;;;;;5.78;1.48;;;17.90;99.90;;;;;;5134678;27;20461;-24
2023/07/02 11:41:18;;;;;;;4.28;1.27;;;18.10;99.90;;;;;;5134855;27;20079;-25
2023/07/02 11:43:44;;;;;;;7.93;2.22;;;18.00;99.90;;;;;;5135058;27;20430;-25
2023/07/02 11:46:10;;;;;;;7.75;2.35;;;17.90;1.00;;;;;;5134507;27;20043;-25
2023/07/02 11:48:35;;;;;;;6.20;1.42;;;18.20;1.00;;;;;;5100220;27;20047;-25
2023/07/02 11:51:01;;;;;;;4.68;1.98;;;18.30;1.00;;;;;;5134787;27;20043;-24
2023/07/02 11:53:27;;;;;;;10.20;2.60;;;18.00;99.90;;;;;;5135359;27;20158;-24
2023/07/02 11:55:52;;;;;;;5.15;1.65;;;17.80;1.00;;;;;;5134286;27;20075;-24
2023/07/02 11:58:18;;;;;;;8.63;2.55;;;17.70;99.90;;;;;;5134753;27;20046;-24
2023/07/02 12:00:44;;;;;;;6.93;2.00;;;17.60;1.00;;;;;;5082794;28;20073;-25
2023/07/02 12:03:10;;;;;;;9.60;3.05;;;19.00;1.00;;;;;;5134002;28;20063;-25
2023/07/02 12:05:36;;;;;;;7.40;1.55;;;19.50;99.90;;;;;;5116384;28;20386;-25
2023/07/02 12:08:03;;;;;;;9.38;2.15;;;19.40;99.90;;;;;;5116371;28;20054;-25
2023/07/02 12:10:28;;;;;;;6.18;2.47;;;19.60;99.90;;;;;;5135144;28;20074;-25
2023/07/02 12:12:54;;;;;;;5.57;2.17;;;19.80;1.00;;;;;;5116284;28;20101;-25
2023/07/02 12:15:20;;;;;;;9.60;2.50;;;19.10;1.00;;;;;;5116507;28;20051;-24
2023/07/02 12:17:46;;;;;;;6.32;2.40;;;19.50;99.90;;;;;;5134497;28;20043;-25
2023/07/02 12:20:11;;;;;;;6.05;1.98;;;20.00;1.00;;;;;;5135035;28;20453;-24
2023/07/02 12:22:37;;;;;;;7.07;2.33;;;20.30;99.90;;;;;;5134494;28;20047;-25
2023/07/02 12:25:03;;;;;;;5.38;2.15;;;20.20;1.00;;;;;;5134405;28;20492;-25
2023/07/02 12:27:29;;;;;;;5.30;2.13;;;19.80;99.90;;;;;;5134700;28;20046;-24
2023/07/02 12:29:56;;;;;;;3.58;1.70;;;18.90;1.00;;;;;;5116412;28;20232;-25
2023/07/02 12:32:22;;;;;;;8.88;2.13;;;19.20;34.10;;;;;;5116198;28;20457;-24
2023/07/02 12:34:48;;;;;;;5.82;2.22;;;18.60;1.00;;;;;;5115967;28;20139;-25
2023/07/02 12:37:17;;;;;;;4.47;1.98;;;18.10;1.00;;;;;;5134855;28;20461;-25
2023/07/02 12:39:42;;;;;;;6.25;2.20;;;17.70;99.90;;;;;;5134912;28;20067;-25